Admire, KS (66830)

11:08 PM CDT on May 25, 2015 (GMT -0500)
Timmerman School Area | | Change Station
CLOSE
Current Station
Personal Weather Station
Location: Emporia, KS
Elevation: 1214 ft
Nearby Weather Stations

Elev 1214 ft 38.43 °N, 96.22 °W | Updated 11 seconds ago

Rain
Rain
64.6 °F
Feels Like 64.6 °F
N
4.0
Wind Variable Wind from SE
Gusts 4.9 mph

Today
High -- | Low -- °F
--% Chance of Precip.
Yesterday
High -- | Low -- °F
Precip. -- in
6:05 AM 8:37 PM
First Quarter, 54% visible
Pressure 29.86 in
Visibility 10.0 miles
Clouds Few 4900 ft
Mostly Cloudy 8000 ft
Overcast 10000 ft
Dew Point 62 °F
Humidity 91%
Rainfall 0.05 in
Snow Depth Not available.
UV 0 out of 12
Pollen 8.30 out of 12
Air Quality Not available.
Flu Activity No Activity
METAR KEMP 260353Z AUTO 15003KT 10SM -RA FEW049 BKN080 OVC100 17/14 A2987 RMK AO2 WSHFT 0243 LTG DSNT N AND NW RAB02E11B22 SLP109 P0002 T01670144

More Conditions Fewer Conditions

Pressure 29.86 in
Visibility 10.0 miles
Clouds Few 4900 ft
Mostly Cloudy 8000 ft
Overcast 10000 ft
Dew Point 62 °F
Humidity 91%
Rainfall 0.05 in
Snow Depth Not available.
UV 0 out of 12
Pollen 8.30 out of 12
Air Quality Not available.
Flu Activity No Activity
METAR KEMP 260353Z AUTO 15003KT 10SM -RA FEW049 BKN080 OVC100 17/14 A2987 RMK AO2 WSHFT 0243 LTG DSNT N AND NW RAB02E11B22 SLP109 P0002 T01670144

More Conditions Fewer Conditions

10-Day Weather Forecast

Almanac

Astronomy

May. 25, 2015 Rise Set
Actual Time
Civil Twilight
Nautical Twilight
Astronomical Twilight
Moon
Length of Visible Light
Length of Day
Tomorrow will be .
, % of the Moon is Illuminated

Today's Extremes

State Highs State Lows

Community

WunderPhotos

Upload Photos

1,824,277 photos uploaded!

WunderBlogs® & News

Nearby

Air Quality

  Air Quality AQ Index Pollutant
Not available.

Snow Depth

Station Depth Elevation

Earthquake Activity

City Distance Mag. Time & Date
Minimum magnitude displayed is 2.5.

Coastal Water Temperatures

Place Temperature

Stations

Nearby Weather Stations

Station Location Temp. Windchill Dew Point Humidity Wind Precip. Elev Updated Type